Time;durP1;ratioP1;P1;durP2;ratioP2;P2;SDS_P1;SDS_P2;PMS_P1;PMS_P2;Temp;Humidity;BMP_temperature;BMP_pressure;BME280_temperature;BME280_humidity;BME280_pressure;Samples;Min_cycle;Max_cycle;Signal;HPM_P1;HPM_P2
2021/07/12 04:01:00;;;;;;;6.23;5.80;;;16.10;99.90;;;;;;5698508;23;20480;-66
2021/07/12 04:03:27;;;;;;;6.93;6.43;;;16.10;99.90;;;;;;4986391;28;20956;-66
2021/07/12 04:05:53;;;;;;;6.90;6.30;;;16.10;99.90;;;;;;4978579;28;20525;-66
2021/07/12 04:08:20;;;;;;;6.83;6.33;;;16.10;99.90;;;;;;4977977;28;20531;-67
2021/07/12 04:10:47;;;;;;;7.10;6.37;;;16.10;99.90;;;;;;4978042;28;20474;-67
2021/07/12 04:13:14;;;;;;;6.40;6.00;;;16.10;99.90;;;;;;4977937;28;20969;-67
2021/07/12 04:15:41;;;;;;;6.90;6.30;;;16.00;99.90;;;;;;4978116;28;20478;-67
2021/07/12 04:18:10;;;;;;;7.53;6.67;;;16.00;99.90;;;;;;4978008;28;20451;-66
2021/07/12 04:20:38;;;;;;;6.60;6.13;;;16.00;99.90;;;;;;4977958;28;20486;-66
2021/07/12 04:23:05;;;;;;;7.50;6.90;;;16.00;99.90;;;;;;4977934;28;20454;-66
2021/07/12 04:25:32;;;;;;;6.27;5.80;;;16.00;99.90;;;;;;4977725;28;20934;-67
2021/07/12 04:27:59;;;;;;;6.83;5.60;;;16.00;99.90;;;;;;4977338;28;20846;-66
2021/07/12 04:30:26;;;;;;;6.53;6.03;;;16.10;99.90;;;;;;4977847;28;20458;-67
2021/07/12 04:32:53;;;;;;;8.53;5.67;;;16.10;99.90;;;;;;4978044;28;20465;-66
2021/07/12 04:35:21;;;;;;;6.67;6.07;;;16.10;99.90;;;;;;4978307;28;20936;-67
2021/07/12 04:37:48;;;;;;;5.63;5.23;;;16.20;99.90;;;;;;4977840;28;20454;-67
2021/07/12 04:40:16;;;;;;;5.70;5.20;;;16.20;99.90;;;;;;4977443;28;20467;-66
2021/07/12 04:42:43;;;;;;;5.37;5.03;;;16.20;99.90;;;;;;4977579;28;20943;-67
2021/07/12 04:45:10;;;;;;;5.60;5.10;;;16.20;99.90;;;;;;4977386;28;20482;-66
2021/07/12 04:47:38;;;;;;;5.60;5.30;;;16.30;99.90;;;;;;4977094;28;20856;-66
2021/07/12 04:50:05;;;;;;;7.00;6.40;;;16.30;99.90;;;;;;4977106;28;20466;-66
2021/07/12 04:52:34;;;;;;;5.13;4.73;;;16.30;99.90;;;;;;4977784;28;20474;-67
2021/07/12 04:55:01;;;;;;;6.33;5.33;;;16.40;99.90;;;;;;4977219;28;20463;-67
2021/07/12 04:57:28;;;;;;;5.30;4.37;;;16.40;99.90;;;;;;4977322;28;20462;-66
2021/07/12 04:59:55;;;;;;;5.90;5.40;;;16.50;99.90;;;;;;4976974;28;20485;-67
2021/07/12 05:02:21;;;;;;;5.30;4.80;;;16.50;99.90;;;;;;4976955;28;20486;-67
2021/07/12 05:04:48;;;;;;;8.50;5.97;;;16.50;99.90;;;;;;4976609;28;20953;-67
2021/07/12 05:07:15;;;;;;;6.93;5.17;;;16.50;99.90;;;;;;4976644;28;20938;-67
2021/07/12 05:09:43;;;;;;;7.13;5.47;;;16.40;99.90;;;;;;4977003;28;20459;-67
2021/07/12 05:12:13;;;;;;;8.43;5.70;;;16.50;99.90;;;;;;4976638;28;20475;-66
2021/07/12 05:14:40;;;;;;;6.10;5.70;;;16.40;99.90;;;;;;4976698;28;20443;-66
2021/07/12 05:17:07;;;;;;;10.83;5.40;;;16.30;99.90;;;;;;4976544;28;20458;-67
2021/07/12 05:19:34;;;;;;;7.07;5.40;;;16.20;99.90;;;;;;4976937;28;20466;-67
2021/07/12 05:22:01;;;;;;;5.30;4.90;;;16.40;99.90;;;;;;4978342;28;20485;-67
2021/07/12 05:24:28;;;;;;;4.83;4.53;;;16.50;99.90;;;;;;4980616;28;20462;-66
2021/07/12 05:26:56;;;;;;;5.07;4.67;;;16.60;99.90;;;;;;4976568;28;20486;-66
2021/07/12 05:29:23;;;;;;;5.67;4.77;;;16.70;99.90;;;;;;4976312;28;20454;-66
2021/07/12 05:31:50;;;;;;;5.10;4.60;;;16.80;99.90;;;;;;4976919;28;20481;-67
2021/07/12 05:34:17;;;;;;;4.83;4.43;;;16.80;99.90;;;;;;4976575;28;20462;-66
2021/07/12 05:36:45;;;;;;;5.50;5.00;;;17.00;99.90;;;;;;4976449;28;20827;-66
2021/07/12 05:39:12;;;;;;;4.40;4.07;;;17.10;99.90;;;;;;4975866;28;20478;-66
2021/07/12 05:41:39;;;;;;;4.40;4.00;;;17.20;99.90;;;;;;4975550;28;20475;-67
2021/07/12 05:44:07;;;;;;;5.00;4.10;;;17.30;99.90;;;;;;4976007;28;20458;-67
2021/07/12 05:46:34;;;;;;;4.07;3.87;;;17.30;99.90;;;;;;4975705;28;21112;-66
2021/07/12 05:49:01;;;;;;;4.73;4.40;;;17.50;99.90;;;;;;4976128;28;20465;-66
2021/07/12 05:51:27;;;;;;;4.90;4.60;;;17.60;99.90;;;;;;4976299;28;20478;-66
2021/07/12 05:53:54;;;;;;;5.77;5.17;;;17.70;99.90;;;;;;4977025;28;20455;-66
2021/07/12 05:56:21;;;;;;;5.00;4.60;;;17.80;99.90;;;;;;4977595;28;20455;-67
2021/07/12 05:58:47;;;;;;;4.80;4.50;;;17.80;99.90;;;;;;4976174;28;20462;-66
2021/07/12 06:01:16;;;;;;;5.30;4.80;;;17.80;99.90;;;;;;4975499;28;20486;-66
2021/07/12 06:03:43;;;;;;;5.80;5.30;;;17.90;99.90;;;;;;4976271;28;20454;-67
2021/07/12 06:06:10;;;;;;;4.90;4.60;;;17.90;99.90;;;;;;4976305;28;20474;-67
2021/07/12 06:08:36;;;;;;;6.27;4.37;;;18.00;99.90;;;;;;4986794;28;20450;-66
2021/07/12 06:11:04;;;;;;;4.70;4.40;;;18.20;99.90;;;;;;4976152;28;20479;-66
2021/07/12 06:13:31;;;;;;;4.63;4.30;;;18.40;99.90;;;;;;4976149;28;20458;-66
2021/07/12 06:15:57;;;;;;;4.70;4.30;;;18.60;99.90;;;;;;4975988;28;20450;-66
2021/07/12 06:18:26;;;;;;;5.80;3.70;;;18.80;99.90;;;;;;4977282;28;20976;-67
2021/07/12 06:20:53;;;;;;;4.03;3.73;;;19.10;99.90;;;;;;4976187;28;20482;-66
2021/07/12 06:23:20;;;;;;;4.20;3.90;;;19.20;99.90;;;;;;4976950;28;20458;-66
2021/07/12 06:25:47;;;;;;;4.73;4.27;;;19.40;99.90;;;;;;4976157;28;21011;-65
2021/07/12 06:28:13;;;;;;;4.20;3.90;;;19.70;99.90;;;;;;4989157;28;20465;-67
2021/07/12 06:30:40;;;;;;;3.77;3.50;;;19.70;99.90;;;;;;4983292;28;20471;-67
2021/07/12 06:33:07;;;;;;;4.13;3.83;;;19.90;99.90;;;;;;4977195;28;20534;-67
2021/07/12 06:35:36;;;;;;;3.50;3.30;;;20.20;99.90;;;;;;4976237;28;20478;-67
2021/07/12 06:38:02;;;;;;;3.83;3.63;;;20.40;99.90;;;;;;4975626;28;21008;-66
2021/07/12 06:40:30;;;;;;;6.00;3.80;;;20.60;99.90;;;;;;4975807;28;20462;-66
2021/07/12 06:42:56;;;;;;;4.20;3.53;;;20.80;99.90;;;;;;4976592;28;20454;-66
2021/07/12 06:45:23;;;;;;;3.80;3.20;;;20.70;99.90;;;;;;4976621;28;20572;-66
2021/07/12 06:47:50;;;;;;;3.97;3.67;;;21.00;99.90;;;;;;4976429;28;20459;-66
2021/07/12 06:50:17;;;;;;;4.60;3.20;;;21.30;99.90;;;;;;4976222;28;20853;-66
2021/07/12 06:52:45;;;;;;;3.30;3.10;;;21.60;99.90;;;;;;4979846;28;20459;-66
2021/07/12 06:55:13;;;;;;;4.10;3.70;;;22.00;99.90;;;;;;4980929;28;20807;-66
2021/07/12 06:57:39;;;;;;;3.30;3.00;;;22.30;99.90;;;;;;4976532;28;20458;-66
2021/07/12 07:00:08;;;;;;;4.73;2.80;;;22.70;99.90;;;;;;4975960;28;20950;-67
2021/07/12 07:02:36;;;;;;;3.07;2.60;;;23.00;99.90;;;;;;4975647;28;20482;-66
2021/07/12 07:05:03;;;;;;;2.80;2.60;;;23.20;99.90;;;;;;4976106;28;20461;-66
2021/07/12 07:07:30;;;;;;;3.57;3.00;;;23.70;99.90;;;;;;4975475;28;20478;-66
2021/07/12 07:09:58;;;;;;;5.60;3.10;;;24.20;99.90;;;;;;4977003;28;20465;-66
2021/07/12 07:12:26;;;;;;;4.00;2.60;;;24.60;99.90;;;;;;4978911;28;21028;-66
2021/07/12 07:14:53;;;;;;;3.40;3.10;;;25.00;99.90;;;;;;4979529;28;20462;-67
2021/07/12 07:17:19;;;;;;;3.60;2.40;;;25.40;99.90;;;;;;4979747;28;20532;-66
2021/07/12 07:19:46;;;;;;;4.63;2.80;;;25.60;99.90;;;;;;4979537;28;20455;-67
2021/07/12 07:22:13;;;;;;;2.60;2.40;;;25.60;99.90;;;;;;4979482;28;20486;-66
2021/07/12 07:24:40;;;;;;;2.40;2.20;;;25.60;99.90;;;;;;4979715;28;20461;-65
2021/07/12 07:27:08;;;;;;;2.50;2.40;;;25.60;99.90;;;;;;4979072;28;20474;-66
2021/07/12 07:29:34;;;;;;;2.47;2.37;;;25.80;99.90;;;;;;4979497;28;20447;-67
2021/07/12 07:32:01;;;;;;;2.83;2.37;;;26.10;99.90;;;;;;4979720;28;20475;-66
2021/07/12 07:34:28;;;;;;;1.90;1.87;;;26.60;99.90;;;;;;4979542;28;20964;-67
2021/07/12 07:36:56;;;;;;;2.07;1.97;;;27.00;99.90;;;;;;4979270;28;20454;-67
2021/07/12 07:39:22;;;;;;;2.83;2.30;;;27.30;99.90;;;;;;4979762;28;20485;-66
2021/07/12 07:41:49;;;;;;;2.13;1.83;;;27.70;99.90;;;;;;4979603;28;21016;-66
2021/07/12 07:44:17;;;;;;;2.67;1.80;;;28.00;99.90;;;;;;4980334;28;20458;-66
2021/07/12 07:46:44;;;;;;;2.20;1.90;;;28.20;99.90;;;;;;4979599;28;20483;-66
2021/07/12 07:49:11;;;;;;;1.70;1.60;;;28.30;99.90;;;;;;4979402;28;20458;-67
2021/07/12 07:51:38;;;;;;;2.10;2.00;;;28.80;99.90;;;;;;4978767;28;20554;-67
2021/07/12 07:54:05;;;;;;;1.83;1.70;;;28.90;99.90;;;;;;4979086;28;20463;-67
2021/07/12 07:56:32;;;;;;;1.83;1.70;;;29.20;99.90;;;;;;4979133;28;20459;-67
2021/07/12 07:58:59;;;;;;;1.60;1.60;;;29.10;99.90;;;;;;4978344;28;20462;-67
2021/07/12 08:01:27;;;;;;;1.90;1.80;;;29.50;99.40;;;;;;4978351;28;20490;-66
2021/07/12 08:03:54;;;;;;;2.30;1.40;;;30.10;97.90;;;;;;4978373;28;20524;-67
2021/07/12 08:06:21;;;;;;;2.00;1.90;;;29.90;96.50;;;;;;4978603;28;20486;-67
2021/07/12 08:08:47;;;;;;;1.40;1.40;;;30.20;96.20;;;;;;4978253;28;20956;-67
2021/07/12 08:11:14;;;;;;;1.87;1.77;;;30.50;95.60;;;;;;4978625;28;20927;-67
2021/07/12 08:13:41;;;;;;;1.70;1.70;;;30.90;93.90;;;;;;4978427;28;20466;-67
2021/07/12 08:16:08;;;;;;;2.00;1.80;;;31.00;93.90;;;;;;4979029;28;20485;-67
2021/07/12 08:18:36;;;;;;;1.77;1.67;;;31.10;92.40;;;;;;4978106;28;20482;-67
2021/07/12 08:21:04;;;;;;;1.77;1.73;;;31.40;93.10;;;;;;4978342;28;20482;-66
2021/07/12 08:23:31;;;;;;;2.03;1.57;;;31.40;90.10;;;;;;4977428;28;20459;-66
2021/07/12 08:25:58;;;;;;;1.90;1.80;;;31.30;90.90;;;;;;4980359;28;20465;-67
2021/07/12 08:28:25;;;;;;;3.33;1.60;;;31.50;91.20;;;;;;4978083;28;20538;-66
2021/07/12 08:30:52;;;;;;;1.60;1.50;;;32.00;88.80;;;;;;4977787;28;20906;-67
2021/07/12 08:33:19;;;;;;;1.80;1.60;;;32.10;90.30;;;;;;4977900;28;20821;-66
2021/07/12 08:35:47;;;;;;;2.00;1.80;;;32.00;84.40;;;;;;4978168;28;20466;-66
2021/07/12 08:38:14;;;;;;;1.73;1.53;;;31.70;85.80;;;;;;4978288;28;20447;-66
2021/07/12 08:40:41;;;;;;;2.33;2.00;;;31.50;87.50;;;;;;4978046;28;20474;-67
2021/07/12 08:43:08;;;;;;;2.13;1.63;;;31.50;88.50;;;;;;4977643;28;20454;-67
2021/07/12 08:45:35;;;;;;;2.90;1.50;;;31.70;86.40;;;;;;4977766;28;21016;-67
2021/07/12 08:48:02;;;;;;;2.07;1.50;;;31.80;85.20;;;;;;4978049;28;20490;-67
2021/07/12 08:50:29;;;;;;;2.80;1.57;;;31.40;85.30;;;;;;4978559;28;20454;-66
2021/07/12 08:52:57;;;;;;;1.93;1.83;;;31.30;85.90;;;;;;4978201;28;20451;-67
2021/07/12 08:55:25;;;;;;;1.67;1.53;;;31.70;84.80;;;;;;4977952;28;20454;-67
2021/07/12 08:58:03;;;;;;;1.87;1.77;;;32.10;82.30;;;;;;4977478;28;20957;-67
2021/07/12 09:00:39;;;;;;;1.70;1.60;;;31.90;83.00;;;;;;4977456;28;20442;-66
2021/07/12 09:03:20;;;;;;;1.80;1.70;;;32.30;82.90;;;;;;4978045;28;20439;-67
2021/07/12 09:06:00;;;;;;;1.47;1.47;;;32.50;82.80;;;;;;4978532;28;20435;-67
2021/07/12 09:08:54;;;;;;;1.70;1.70;;;32.50;84.90;;;;;;4982299;28;20435;-67
2021/07/12 09:11:30;;;;;;;2.00;1.90;;;32.80;85.00;;;;;;4996054;28;20502;-67
2021/07/12 09:14:00;;;;;;;1.93;1.73;;;33.00;80.00;;;;;;4998139;28;20426;-66
2021/07/12 09:16:46;;;;;;;2.13;1.63;;;33.30;76.50;;;;;;4999939;28;20439;-67
2021/07/12 09:19:22;;;;;;;1.80;1.70;;;33.50;76.10;;;;;;4983800;28;20431;-67
2021/07/12 09:21:58;;;;;;;2.27;1.70;;;33.10;74.00;;;;;;4977295;28;20473;-67
2021/07/12 09:24:29;;;;;;;2.03;1.93;;;32.90;75.20;;;;;;4977850;28;20461;-66
2021/07/12 09:26:59;;;;;;;1.30;1.30;;;32.40;75.30;;;;;;4977370;28;20470;-67
2021/07/12 09:29:27;;;;;;;2.03;1.93;;;31.80;77.70;;;;;;4977162;28;20457;-67
2021/07/12 09:31:54;;;;;;;1.90;1.80;;;31.90;79.10;;;;;;4976681;28;20481;-67
2021/07/12 09:34:22;;;;;;;1.80;1.80;;;32.20;78.40;;;;;;4976747;28;20797;-66
2021/07/12 09:36:50;;;;;;;1.77;1.57;;;32.00;76.70;;;;;;4976663;28;20501;-67
2021/07/12 09:39:18;;;;;;;1.73;1.60;;;32.00;75.70;;;;;;4976809;28;20802;-67
2021/07/12 09:41:49;;;;;;;1.63;1.60;;;32.20;75.10;;;;;;4976668;28;20478;-67
2021/07/12 09:44:18;;;;;;;1.50;1.40;;;32.70;77.50;;;;;;4977056;28;20439;-66
2021/07/12 09:46:45;;;;;;;1.80;1.80;;;32.90;71.20;;;;;;4977505;28;20489;-67
2021/07/12 09:49:13;;;;;;;1.50;1.40;;;32.80;73.90;;;;;;4976950;28;20462;-67
2021/07/12 09:51:40;;;;;;;1.43;1.33;;;33.20;73.20;;;;;;4976543;28;20481;-67
2021/07/12 09:54:21;;;;;;;1.53;1.43;;;33.80;73.40;;;;;;4977612;28;20941;-66
2021/07/12 09:56:51;;;;;;;1.80;1.70;;;34.00;72.90;;;;;;4979402;28;20450;-67
2021/07/12 09:59:19;;;;;;;2.73;1.47;;;34.20;71.50;;;;;;4976979;28;20798;-66
2021/07/12 10:01:48;;;;;;;1.50;1.50;;;34.70;70.60;;;;;;4976382;28;20496;-67
2021/07/12 10:04:15;;;;;;;1.50;1.50;;;34.90;67.80;;;;;;4976804;28;20458;-67
2021/07/12 10:06:43;;;;;;;1.93;1.87;;;34.60;66.00;;;;;;4976711;28;20527;-67
2021/07/12 10:09:11;;;;;;;2.00;1.90;;;34.50;66.20;;;;;;4976896;28;20458;-67
2021/07/12 10:11:37;;;;;;;2.53;1.83;;;34.10;65.80;;;;;;4976739;28;20489;-67
2021/07/12 10:14:06;;;;;;;2.20;2.00;;;34.00;65.50;;;;;;4976332;28;20975;-68
2021/07/12 10:16:33;;;;;;;2.53;1.40;;;33.90;67.00;;;;;;4976468;28;20458;-66
2021/07/12 10:19:01;;;;;;;2.80;2.00;;;34.10;65.30;;;;;;4976389;28;20509;-67
2021/07/12 10:21:39;;;;;;;1.70;1.70;;;34.30;65.00;;;;;;4976136;28;20835;-67
2021/07/12 10:24:06;;;;;;;1.80;1.70;;;33.80;63.60;;;;;;4976588;28;20778;-66
2021/07/12 10:26:49;;;;;;;1.97;1.87;;;33.90;64.70;;;;;;4976040;28;20446;-66
2021/07/12 10:29:21;;;;;;;3.53;2.07;;;33.30;65.90;;;;;;4976195;28;20505;-67
2021/07/12 10:32:10;;;;;;;1.70;1.70;;;33.10;64.40;;;;;;4976304;28;20474;-67
2021/07/12 10:34:39;;;;;;;2.07;1.97;;;32.80;66.50;;;;;;4976333;28;20439;-67
2021/07/12 10:37:15;;;;;;;1.80;1.70;;;31.90;67.20;;;;;;4976006;28;20474;-67
2021/07/12 10:40:15;;;;;;;1.90;1.80;;;31.40;70.10;;;;;;4976328;28;20449;-66
2021/07/12 10:43:02;;;;;;;1.97;1.87;;;31.00;72.30;;;;;;4976486;28;20443;-67
2021/07/12 10:45:49;;;;;;;3.10;2.10;;;30.80;75.10;;;;;;4975842;28;20435;-66
2021/07/12 10:48:17;;;;;;;1.90;1.80;;;30.60;76.30;;;;;;4976206;28;20494;-67
2021/07/12 10:50:54;;;;;;;1.93;1.73;;;30.40;74.60;;;;;;4976022;28;20470;-67
2021/07/12 10:53:38;;;;;;;2.03;1.93;;;30.10;72.00;;;;;;4976465;28;20442;-66
2021/07/12 10:56:08;;;;;;;3.03;1.97;;;29.80;72.60;;;;;;4976173;28;20806;-66
2021/07/12 10:58:49;;;;;;;1.73;1.63;;;29.70;74.90;;;;;;4976255;28;20480;-68
2021/07/12 11:01:45;;;;;;;1.60;1.57;;;29.70;76.20;;;;;;4975629;28;20485;-67
2021/07/12 11:04:42;;;;;;;2.07;1.97;;;30.00;78.80;;;;;;4976382;28;20925;-67
2021/07/12 11:07:12;;;;;;;2.43;1.67;;;30.30;79.10;;;;;;4976321;28;20533;-66
2021/07/12 11:09:51;;;;;;;2.13;2.03;;;30.50;75.90;;;;;;4977833;28;20462;-66
2021/07/12 11:12:55;;;;;;;1.90;1.80;;;30.60;77.60;;;;;;4976865;28;20479;-67
2021/07/12 11:15:31;;;;;;;2.00;1.90;;;30.80;73.80;;;;;;4975370;28;20442;-67
2021/07/12 11:18:07;;;;;;;2.30;1.63;;;30.60;76.90;;;;;;4975902;28;20441;-67
2021/07/12 11:20:54;;;;;;;1.93;1.90;;;30.10;73.80;;;;;;4976186;28;20479;-67
2021/07/12 11:23:56;;;;;;;2.00;1.93;;;29.60;75.60;;;;;;4976126;28;20805;-66
2021/07/12 11:26:38;;;;;;;2.20;2.10;;;29.60;78.10;;;;;;4918245;29;20485;-67
2021/07/12 11:29:14;;;;;;;2.20;2.10;;;29.60;80.10;;;;;;4980109;28;21028;-68
2021/07/12 11:31:42;;;;;;;1.90;1.80;;;29.60;77.60;;;;;;4976112;28;20478;-67
2021/07/12 11:34:13;;;;;;;2.83;1.90;;;29.70;78.20;;;;;;4975917;28;20469;-67
2021/07/12 11:36:40;;;;;;;2.07;1.97;;;29.70;77.60;;;;;;4976378;28;20439;-66
2021/07/12 11:39:07;;;;;;;1.80;1.70;;;29.80;79.50;;;;;;4980711;28;20455;-67
2021/07/12 11:41:34;;;;;;;2.57;2.37;;;29.90;80.30;;;;;;4978840;28;20477;-66
2021/07/12 11:44:07;;;;;;;2.07;1.97;;;30.00;80.40;;;;;;4976557;28;20525;-66
2021/07/12 11:46:35;;;;;;;2.27;2.10;;;30.10;79.10;;;;;;4976070;28;20486;-68
2021/07/12 11:49:06;;;;;;;2.23;1.73;;;30.10;79.40;;;;;;4975745;28;20478;-66
2021/07/12 11:51:34;;;;;;;1.83;1.70;;;30.20;79.70;;;;;;4977278;28;20506;-67
2021/07/12 11:54:01;;;;;;;2.47;2.37;;;30.40;79.30;;;;;;4976727;28;20454;-67
2021/07/12 11:56:28;;;;;;;2.17;2.07;;;30.50;78.90;;;;;;4977322;28;20454;-67
2021/07/12 11:58:58;;;;;;;1.90;1.90;;;30.60;80.50;;;;;;4980725;28;20465;-66
2021/07/12 12:01:25;;;;;;;2.10;2.00;;;30.60;78.00;;;;;;4980137;28;20489;-67
2021/07/12 12:04:01;;;;;;;1.87;1.77;;;30.60;76.60;;;;;;4978764;28;20481;-67
2021/07/12 12:06:29;;;;;;;2.17;2.07;;;30.20;75.20;;;;;;4978919;28;20466;-68
2021/07/12 12:09:01;;;;;;;1.50;1.43;;;30.00;77.20;;;;;;4978795;28;21007;-66
2021/07/12 12:11:28;;;;;;;2.00;2.00;;;29.90;78.20;;;;;;4978792;28;20478;-67
2021/07/12 12:13:55;;;;;;;2.70;1.70;;;29.80;79.80;;;;;;4978533;28;20466;-67
2021/07/12 12:16:26;;;;;;;1.93;1.83;;;29.70;80.60;;;;;;4978422;28;20490;-68
2021/07/12 12:18:54;;;;;;;2.20;2.03;;;29.90;79.60;;;;;;4978449;28;20453;-67
2021/07/12 12:21:22;;;;;;;3.87;3.20;;;30.10;80.70;;;;;;4978591;28;20532;-67
2021/07/12 12:23:48;;;;;;;1.80;1.70;;;30.30;83.00;;;;;;4978585;28;20461;-67
2021/07/12 12:26:25;;;;;;;2.30;2.10;;;30.20;77.80;;;;;;4978372;28;20466;-68
2021/07/12 12:28:54;;;;;;;2.10;2.00;;;30.20;78.90;;;;;;4978404;28;20909;-67
2021/07/12 12:31:23;;;;;;;4.20;2.00;;;30.40;79.40;;;;;;4978272;28;20891;-67
2021/07/12 12:33:57;;;;;;;1.70;1.70;;;30.80;81.70;;;;;;4977964;28;20466;-67
2021/07/12 12:36:26;;;;;;;1.80;1.80;;;31.10;75.80;;;;;;4978002;28;20465;-67
2021/07/12 12:38:54;;;;;;;1.80;1.70;;;31.00;73.50;;;;;;4978895;28;20455;-67
2021/07/12 12:41:24;;;;;;;1.83;1.70;;;31.10;77.20;;;;;;4978264;28;20482;-68
2021/07/12 12:44:05;;;;;;;1.97;1.87;;;31.20;77.60;;;;;;4978760;28;20458;-66
2021/07/12 12:46:32;;;;;;;2.00;1.90;;;31.40;76.80;;;;;;4978839;28;20505;-66
2021/07/12 12:48:59;;;;;;;1.93;1.83;;;31.50;72.50;;;;;;4978413;28;20482;-67
2021/07/12 12:51:32;;;;;;;1.90;1.90;;;31.60;73.40;;;;;;4978860;28;20481;-67
2021/07/12 12:54:10;;;;;;;1.67;1.67;;;31.60;74.00;;;;;;4978890;28;20531;-67
2021/07/12 12:56:46;;;;;;;1.67;1.67;;;31.60;70.60;;;;;;4979164;28;20442;-66
2021/07/12 12:59:13;;;;;;;2.13;2.07;;;31.20;72.40;;;;;;4979603;28;20435;-66
2021/07/12 13:01:42;;;;;;;2.47;2.27;;;31.00;75.60;;;;;;4978267;28;20490;-67
2021/07/12 13:04:11;;;;;;;1.80;1.70;;;30.90;71.20;;;;;;4978363;28;20505;-68
2021/07/12 13:06:45;;;;;;;1.90;1.80;;;30.90;75.10;;;;;;4978721;28;20869;-67
2021/07/12 13:09:13;;;;;;;2.20;2.10;;;30.60;72.40;;;;;;4977451;28;20470;-67
2021/07/12 13:11:43;;;;;;;2.20;2.00;;;30.70;76.80;;;;;;4985884;28;20506;-68
2021/07/12 13:14:10;;;;;;;2.03;1.97;;;30.70;75.50;;;;;;4991378;28;20482;-67
2021/07/12 13:16:37;;;;;;;2.53;2.33;;;30.90;75.70;;;;;;4986108;28;20821;-67
2021/07/12 13:19:05;;;;;;;1.90;1.80;;;30.90;77.20;;;;;;4981766;28;20455;-67
2021/07/12 13:21:52;;;;;;;2.10;2.00;;;31.00;75.50;;;;;;4977957;28;20534;-67
2021/07/12 13:24:41;;;;;;;2.03;1.93;;;31.10;74.60;;;;;;4977659;28;20443;-66
2021/07/12 13:27:09;;;;;;;2.23;2.03;;;30.70;72.80;;;;;;4984618;28;20443;-66
2021/07/12 13:29:36;;;;;;;1.80;1.70;;;30.60;74.50;;;;;;4987260;28;20997;-66
2021/07/12 13:32:05;;;;;;;2.30;2.20;;;30.50;77.90;;;;;;4986213;28;20486;-67
2021/07/12 13:34:31;;;;;;;1.90;1.90;;;30.50;77.20;;;;;;4987223;28;20450;-66
2021/07/12 13:36:59;;;;;;;2.10;2.00;;;30.30;79.40;;;;;;4988683;28;20461;-67
2021/07/12 13:39:26;;;;;;;4.53;2.10;;;30.60;77.30;;;;;;4990363;28;20806;-66
2021/07/12 13:41:52;;;;;;;7.40;2.90;;;30.70;75.90;;;;;;4986479;28;20481;-66
2021/07/12 13:44:20;;;;;;;1.80;1.80;;;30.60;74.80;;;;;;4988993;28;20461;-66
2021/07/12 13:46:47;;;;;;;1.87;1.87;;;30.30;77.40;;;;;;4989443;28;20455;-66
2021/07/12 13:49:14;;;;;;;2.17;1.97;;;30.40;78.30;;;;;;4991904;28;20471;-67
2021/07/12 13:51:40;;;;;;;2.40;1.97;;;30.40;76.70;;;;;;4992029;28;20451;-66
2021/07/12 13:54:07;;;;;;;1.97;1.97;;;30.30;75.90;;;;;;4990476;28;20944;-66
2021/07/12 13:56:34;;;;;;;2.47;2.27;;;30.50;78.00;;;;;;4989121;28;20486;-67
2021/07/12 13:59:01;;;;;;;2.30;2.20;;;30.80;76.00;;;;;;4989127;28;20446;-67
2021/07/12 14:01:29;;;;;;;2.17;2.10;;;30.90;74.90;;;;;;4986719;28;20475;-67
2021/07/12 14:03:55;;;;;;;2.70;2.40;;;30.90;75.80;;;;;;4988788;28;20455;-66
2021/07/12 14:06:22;;;;;;;2.43;2.23;;;30.70;75.00;;;;;;4989550;28;20455;-67
2021/07/12 14:08:50;;;;;;;1.80;1.70;;;30.60;77.00;;;;;;4986127;28;20479;-66
2021/07/12 14:11:17;;;;;;;2.77;2.30;;;30.50;77.50;;;;;;4986954;28;20458;-66
2021/07/12 14:13:44;;;;;;;5.23;4.13;;;30.30;75.30;;;;;;4985206;28;20454;-66
2021/07/12 14:16:11;;;;;;;3.03;2.87;;;30.30;76.60;;;;;;4980103;28;20458;-67
2021/07/12 14:18:39;;;;;;;3.70;3.37;;;30.50;78.30;;;;;;4979235;28;20454;-67
2021/07/12 14:21:06;;;;;;;2.30;2.20;;;30.50;75.10;;;;;;4978314;28;20478;-66
2021/07/12 14:23:33;;;;;;;2.40;2.20;;;30.40;76.70;;;;;;4978639;28;20461;-66
2021/07/12 14:26:00;;;;;;;2.20;2.10;;;30.30;79.10;;;;;;4976264;28;20942;-67
2021/07/12 14:28:26;;;;;;;2.10;2.00;;;30.30;78.80;;;;;;4976646;28;20486;-67
2021/07/12 14:30:53;;;;;;;2.10;2.00;;;30.30;77.70;;;;;;4977036;28;21016;-67
2021/07/12 14:33:20;;;;;;;2.40;2.20;;;30.30;80.70;;;;;;4987610;28;20486;-67
2021/07/12 14:35:48;;;;;;;2.40;2.20;;;30.30;80.10;;;;;;4988578;28;20458;-66
2021/07/12 14:38:15;;;;;;;2.50;2.30;;;30.50;83.40;;;;;;4987876;28;20482;-67
2021/07/12 14:40:42;;;;;;;2.87;2.67;;;30.60;78.70;;;;;;4987613;28;20502;-65
2021/07/12 14:43:08;;;;;;;2.37;2.17;;;30.50;78.00;;;;;;4988253;28;20539;-66
2021/07/12 14:45:35;;;;;;;2.17;1.97;;;30.40;81.10;;;;;;4988028;28;20946;-67
2021/07/12 14:48:02;;;;;;;2.83;2.00;;;30.20;81.90;;;;;;4988459;28;20450;-67
2021/07/12 14:50:28;;;;;;;2.97;2.27;;;30.40;81.70;;;;;;4988915;28;20454;-66
2021/07/12 14:52:56;;;;;;;2.50;2.10;;;30.50;81.00;;;;;;4987566;28;20455;-66
2021/07/12 14:55:23;;;;;;;1.93;1.93;;;30.40;81.50;;;;;;4988369;28;20822;-66
2021/07/12 14:57:51;;;;;;;2.10;2.00;;;30.20;79.40;;;;;;4987862;28;20454;-66
2021/07/12 15:00:18;;;;;;;3.47;2.60;;;30.00;81.50;;;;;;4987788;28;20895;-66
2021/07/12 15:02:45;;;;;;;3.17;2.00;;;30.00;80.50;;;;;;4988016;28;20438;-67
2021/07/12 15:05:13;;;;;;;3.03;1.73;;;29.90;83.00;;;;;;4982564;28;20462;-67
2021/07/12 15:07:40;;;;;;;2.00;1.90;;;29.90;84.90;;;;;;4982787;28;20455;-67
2021/07/12 15:10:09;;;;;;;10.20;4.63;;;29.80;81.30;;;;;;4981127;28;20478;-67
2021/07/12 15:12:36;;;;;;;2.80;2.40;;;29.70;84.10;;;;;;4978833;28;20474;-66
2021/07/12 15:15:03;;;;;;;11.93;6.70;;;29.70;81.80;;;;;;4977658;28;20477;-66
2021/07/12 15:17:30;;;;;;;6.77;6.07;;;29.80;84.00;;;;;;4977783;28;20450;-67
2021/07/12 15:19:57;;;;;;;2.73;2.60;;;29.80;83.80;;;;;;4977795;28;20453;-67
2021/07/12 15:22:25;;;;;;;2.90;2.70;;;29.80;86.60;;;;;;4978253;28;20474;-67
2021/07/12 15:24:52;;;;;;;5.33;3.27;;;29.80;85.30;;;;;;4979600;28;20466;-67
2021/07/12 15:27:20;;;;;;;2.77;2.57;;;29.70;84.40;;;;;;4978000;28;20847;-66
2021/07/12 15:29:47;;;;;;;2.40;2.20;;;29.80;85.80;;;;;;4976708;28;21056;-67
2021/07/12 15:32:14;;;;;;;2.47;2.27;;;29.90;84.30;;;;;;4976737;28;20474;-67
2021/07/12 15:34:41;;;;;;;2.93;2.60;;;29.80;83.70;;;;;;4980214;28;20454;-67
2021/07/12 15:37:07;;;;;;;2.13;2.00;;;29.70;85.60;;;;;;4980370;28;20818;-67
2021/07/12 15:39:36;;;;;;;2.30;2.10;;;29.70;86.00;;;;;;4979736;28;20454;-67
2021/07/12 15:42:03;;;;;;;2.40;2.20;;;29.80;84.80;;;;;;4979590;28;20506;-66
2021/07/12 15:44:31;;;;;;;2.90;2.20;;;29.70;85.40;;;;;;4979315;28;20454;-68
2021/07/12 15:47:01;;;;;;;2.10;2.03;;;29.50;84.80;;;;;;4979100;28;20461;-66
2021/07/12 15:49:28;;;;;;;2.13;2.03;;;29.40;87.30;;;;;;4979239;28;20989;-67
2021/07/12 15:51:55;;;;;;;2.13;2.00;;;29.50;87.90;;;;;;4985152;28;20837;-67
2021/07/12 15:54:21;;;;;;;2.50;2.40;;;29.30;87.00;;;;;;4982548;28;20941;-67
2021/07/12 15:56:48;;;;;;;2.63;2.43;;;29.40;90.70;;;;;;4979372;28;20454;-67
2021/07/12 15:59:15;;;;;;;2.47;2.27;;;29.40;86.90;;;;;;4979531;28;20462;-66
2021/07/12 16:01:46;;;;;;;11.30;2.50;;;29.50;90.70;;;;;;4979555;28;20489;-67
2021/07/12 16:04:13;;;;;;;2.10;2.00;;;29.40;86.40;;;;;;4979380;28;20884;-66
2021/07/12 16:06:40;;;;;;;3.17;2.90;;;29.60;88.50;;;;;;4979668;28;20497;-66
2021/07/12 16:09:07;;;;;;;3.87;2.00;;;29.50;85.20;;;;;;4979289;28;20482;-67
2021/07/12 16:11:34;;;;;;;1.97;1.87;;;29.40;85.20;;;;;;4979098;28;20474;-67
2021/07/12 16:14:01;;;;;;;2.10;2.00;;;29.40;85.10;;;;;;4980630;28;20461;-67
2021/07/12 16:16:27;;;;;;;2.40;2.30;;;29.40;84.40;;;;;;4989709;28;20587;-66
2021/07/12 16:18:55;;;;;;;2.77;2.20;;;29.40;85.40;;;;;;4978759;28;20453;-68
2021/07/12 16:21:22;;;;;;;2.77;2.57;;;29.40;87.10;;;;;;4979095;28;20482;-67
2021/07/12 16:23:49;;;;;;;2.63;2.43;;;29.30;87.60;;;;;;4978547;28;20970;-67
2021/07/12 16:26:16;;;;;;;1.90;1.80;;;29.30;89.20;;;;;;4978365;28;20458;-67
2021/07/12 16:28:42;;;;;;;1.80;1.70;;;29.30;86.60;;;;;;4978657;28;20502;-67
2021/07/12 16:31:09;;;;;;;2.00;1.90;;;29.30;86.50;;;;;;4978603;28;20501;-67
2021/07/12 16:33:36;;;;;;;2.33;2.23;;;29.40;86.60;;;;;;4982638;28;20455;-66
2021/07/12 16:36:05;;;;;;;3.37;1.87;;;29.40;87.30;;;;;;4981913;28;20455;-66
2021/07/12 16:38:32;;;;;;;4.27;1.93;;;29.30;87.30;;;;;;4978840;28;20466;-67
2021/07/12 16:41:01;;;;;;;2.17;2.07;;;29.30;88.60;;;;;;4979088;28;20493;-67
2021/07/12 16:43:28;;;;;;;2.50;2.40;;;29.30;86.50;;;;;;4978349;28;20482;-66
2021/07/12 16:45:55;;;;;;;3.77;2.30;;;29.30;89.00;;;;;;4978116;28;20822;-66
2021/07/12 16:48:22;;;;;;;2.50;2.40;;;29.00;89.60;;;;;;4978555;28;20787;-67
2021/07/12 16:50:49;;;;;;;2.50;2.33;;;28.90;89.10;;;;;;4978142;28;20486;-67
2021/07/12 16:53:17;;;;;;;2.97;2.80;;;28.80;88.70;;;;;;4978355;28;20491;-66
2021/07/12 16:55:43;;;;;;;2.30;2.20;;;28.90;89.10;;;;;;4977878;28;20458;-67